sensor_id;sensor_type;location;lat;lon;timestamp;pressure;altitude;pressure_sealevel;temperature;humidity
31044;BME280;17710;52.520;13.352;2022-09-01T00:00:57;101981.84;;;22.05;42.23
31044;BME280;17710;52.520;13.352;2022-09-01T00:03:23;101978.94;;;22.08;42.10
31044;BME280;17710;52.520;13.352;2022-09-01T00:05:52;101982.31;;;21.98;42.29
31044;BME280;17710;52.520;13.352;2022-09-01T00:08:22;101979.63;;;21.98;42.07
31044;BME280;17710;52.520;13.352;2022-09-01T00:10:49;101980.94;;;21.91;42.39
31044;BME280;17710;52.520;13.352;2022-09-01T00:13:16;101979.69;;;22.10;41.78
31044;BME280;17710;52.520;13.352;2022-09-01T00:15:43;101981.44;;;21.97;42.22
31044;BME280;17710;52.520;13.352;2022-09-01T00:18:11;101972.31;;;21.85;42.15
31044;BME280;17710;52.520;13.352;2022-09-01T00:20:38;101987.94;;;21.93;41.93
31044;BME280;17710;52.520;13.352;2022-09-01T00:23:04;101979.97;;;21.92;41.98
31044;BME280;17710;52.520;13.352;2022-09-01T00:25:30;101985.06;;;21.82;42.19
31044;BME280;17710;52.520;13.352;2022-09-01T00:27:57;101988.53;;;21.84;42.45
31044;BME280;17710;52.520;13.352;2022-09-01T00:30:28;101980.25;;;21.87;42.13
31044;BME280;17710;52.520;13.352;2022-09-01T00:32:55;101978.50;;;21.86;42.20
31044;BME280;17710;52.520;13.352;2022-09-01T00:35:23;101986.13;;;21.79;42.38
31044;BME280;17710;52.520;13.352;2022-09-01T00:37:52;101984.28;;;21.80;42.43
31044;BME280;17710;52.520;13.352;2022-09-01T00:40:20;101970.56;;;21.84;42.02
31044;BME280;17710;52.520;13.352;2022-09-01T00:42:47;101976.22;;;21.80;42.00
31044;BME280;17710;52.520;13.352;2022-09-01T00:45:16;101974.00;;;21.86;41.95
31044;BME280;17710;52.520;13.352;2022-09-01T00:47:45;101970.00;;;21.65;42.50
31044;BME280;17710;52.520;13.352;2022-09-01T00:50:12;101976.34;;;21.78;42.28
31044;BME280;17710;52.520;13.352;2022-09-01T00:52:43;101980.53;;;21.54;42.28
31044;BME280;17710;52.520;13.352;2022-09-01T00:55:14;101975.75;;;21.59;42.16
31044;BME280;17710;52.520;13.352;2022-09-01T00:57:42;101978.63;;;21.84;42.06
31044;BME280;17710;52.520;13.352;2022-09-01T01:00:12;101970.66;;;21.83;42.11
31044;BME280;17710;52.520;13.352;2022-09-01T01:02:40;101968.75;;;21.85;41.89
31044;BME280;17710;52.520;13.352;2022-09-01T01:05:10;101972.47;;;21.82;41.77
31044;BME280;17710;52.520;13.352;2022-09-01T01:07:37;101968.53;;;21.88;41.91
31044;BME280;17710;52.520;13.352;2022-09-01T01:10:11;101974.03;;;21.72;42.02
31044;BME280;17710;52.520;13.352;2022-09-01T01:12:42;101978.63;;;21.84;42.16
31044;BME280;17710;52.520;13.352;2022-09-01T01:15:10;101973.53;;;21.80;41.94
31044;BME280;17710;52.520;13.352;2022-09-01T01:17:37;101971.44;;;21.71;42.09
31044;BME280;17710;52.520;13.352;2022-09-01T01:20:06;101968.19;;;21.66;42.33
31044;BME280;17710;52.520;13.352;2022-09-01T01:22:58;101964.72;;;21.78;42.16
31044;BME280;17710;52.520;13.352;2022-09-01T01:25:34;101964.63;;;21.65;42.58
31044;BME280;17710;52.520;13.352;2022-09-01T01:28:11;101969.41;;;21.46;42.71
31044;BME280;17710;52.520;13.352;2022-09-01T01:30:41;101974.78;;;21.60;42.69
31044;BME280;17710;52.520;13.352;2022-09-01T01:33:08;101972.22;;;21.59;42.93
31044;BME280;17710;52.520;13.352;2022-09-01T01:35:35;101978.63;;;21.70;42.61
31044;BME280;17710;52.520;13.352;2022-09-01T01:38:04;101969.50;;;21.15;43.63
31044;BME280;17710;52.520;13.352;2022-09-01T01:40:34;101970.63;;;21.40;43.39
31044;BME280;17710;52.520;13.352;2022-09-01T01:43:01;101967.09;;;21.54;42.97
31044;BME280;17710;52.520;13.352;2022-09-01T01:45:28;101974.28;;;21.54;42.97
31044;BME280;17710;52.520;13.352;2022-09-01T01:47:55;101974.97;;;21.43;43.20
31044;BME280;17710;52.520;13.352;2022-09-01T01:50:23;101968.63;;;21.44;43.13
31044;BME280;17710;52.520;13.352;2022-09-01T01:52:54;101964.28;;;21.41;43.33
31044;BME280;17710;52.520;13.352;2022-09-01T01:55:24;101969.44;;;21.16;43.80
31044;BME280;17710;52.520;13.352;2022-09-01T01:57:53;101963.31;;;21.28;43.66
31044;BME280;17710;52.520;13.352;2022-09-01T02:00:24;101957.19;;;21.26;43.64
31044;BME280;17710;52.520;13.352;2022-09-01T02:02:52;101967.44;;;21.34;43.55
31044;BME280;17710;52.520;13.352;2022-09-01T02:05:23;101972.34;;;21.27;43.89
31044;BME280;17710;52.520;13.352;2022-09-01T02:07:52;101961.28;;;21.18;44.26
31044;BME280;17710;52.520;13.352;2022-09-01T02:10:22;101958.59;;;21.18;44.26
31044;BME280;17710;52.520;13.352;2022-09-01T02:12:49;101966.81;;;21.15;44.31
31044;BME280;17710;52.520;13.352;2022-09-01T02:15:17;101967.25;;;21.23;44.28
31044;BME280;17710;52.520;13.352;2022-09-01T02:17:43;101965.81;;;21.01;44.79
31044;BME280;17710;52.520;13.352;2022-09-01T02:20:14;101975.31;;;20.93;45.01
31044;BME280;17710;52.520;13.352;2022-09-01T02:22:41;101972.63;;;20.93;45.25
31044;BME280;17710;52.520;13.352;2022-09-01T02:25:09;101974.16;;;20.97;45.24
31044;BME280;17710;52.520;13.352;2022-09-01T02:27:36;101968.47;;;20.87;45.35
31044;BME280;17710;52.520;13.352;2022-09-01T02:30:05;101971.94;;;20.89;45.26
31044;BME280;17710;52.520;13.352;2022-09-01T02:32:36;101973.53;;;20.78;45.66
31044;BME280;17710;52.520;13.352;2022-09-01T02:35:04;101965.81;;;20.72;46.03
31044;BME280;17710;52.520;13.352;2022-09-01T02:37:35;101961.31;;;20.72;46.20
31044;BME280;17710;52.520;13.352;2022-09-01T02:40:05;101962.50;;;20.82;45.66
31044;BME280;17710;52.520;13.352;2022-09-01T02:42:32;101965.75;;;20.73;45.93
31044;BME280;17710;52.520;13.352;2022-09-01T02:44:58;101961.25;;;20.74;46.22
31044;BME280;17710;52.520;13.352;2022-09-01T02:47:25;101961.84;;;20.63;46.41
31044;BME280;17710;52.520;13.352;2022-09-01T02:49:54;101956.91;;;20.55;46.82
31044;BME280;17710;52.520;13.352;2022-09-01T02:52:22;101955.25;;;20.68;46.68
31044;BME280;17710;52.520;13.352;2022-09-01T02:54:48;101965.03;;;20.69;46.46
31044;BME280;17710;52.520;13.352;2022-09-01T02:57:15;101952.69;;;20.67;46.53
31044;BME280;17710;52.520;13.352;2022-09-01T02:59:42;101950.97;;;20.50;47.14
31044;BME280;17710;52.520;13.352;2022-09-01T03:02:09;101960.75;;;20.36;47.13
31044;BME280;17710;52.520;13.352;2022-09-01T03:04:36;101964.72;;;20.13;47.95
31044;BME280;17710;52.520;13.352;2022-09-01T03:07:05;101959.00;;;20.19;48.08
31044;BME280;17710;52.520;13.352;2022-09-01T03:09:34;101955.91;;;20.26;47.84
31044;BME280;17710;52.520;13.352;2022-09-01T03:12:05;101961.25;;;20.26;47.97
31044;BME280;17710;52.520;13.352;2022-09-01T03:14:32;101959.78;;;20.21;48.16
31044;BME280;17710;52.520;13.352;2022-09-01T03:17:01;101953.13;;;20.12;48.19
31044;BME280;17710;52.520;13.352;2022-09-01T03:19:28;101955.53;;;20.17;48.33
31044;BME280;17710;52.520;13.352;2022-09-01T03:21:56;101954.84;;;20.29;48.33
31044;BME280;17710;52.520;13.352;2022-09-01T03:24:25;101947.06;;;20.24;48.18
31044;BME280;17710;52.520;13.352;2022-09-01T03:26:54;101950.25;;;20.15;48.55
31044;BME280;17710;52.520;13.352;2022-09-01T03:29:23;101946.72;;;20.15;48.43
31044;BME280;17710;52.520;13.352;2022-09-01T03:31:50;101952.25;;;20.12;48.74
31044;BME280;17710;52.520;13.352;2022-09-01T03:34:16;101954.31;;;19.91;49.06
31044;BME280;17710;52.520;13.352;2022-09-01T03:36:50;101949.56;;;20.12;48.85
31044;BME280;17710;52.520;13.352;2022-09-01T03:39:18;101954.84;;;19.98;49.13
31044;BME280;17710;52.520;13.352;2022-09-01T03:41:47;101954.72;;;19.68;50.03
31044;BME280;17710;52.520;13.352;2022-09-01T03:44:14;101950.00;;;20.04;49.08
31044;BME280;17710;52.520;13.352;2022-09-01T03:46:42;101953.03;;;19.98;49.31
31044;BME280;17710;52.520;13.352;2022-09-01T03:49:10;101955.59;;;19.84;49.67
31044;BME280;17710;52.520;13.352;2022-09-01T03:51:40;101962.34;;;19.75;49.61
31044;BME280;17710;52.520;13.352;2022-09-01T03:54:08;101952.16;;;19.82;49.38
31044;BME280;17710;52.520;13.352;2022-09-01T03:56:35;101953.84;;;19.83;49.53
31044;BME280;17710;52.520;13.352;2022-09-01T03:59:06;101946.56;;;19.69;49.74
31044;BME280;17710;52.520;13.352;2022-09-01T04:01:32;101952.91;;;19.68;49.79
31044;BME280;17710;52.520;13.352;2022-09-01T04:04:02;101950.63;;;19.61;50.05
31044;BME280;17710;52.520;13.352;2022-09-01T04:06:29;101953.13;;;19.64;50.11
31044;BME280;17710;52.520;13.352;2022-09-01T04:08:56;101952.00;;;19.52;50.38
31044;BME280;17710;52.520;13.352;2022-09-01T04:11:27;101955.22;;;19.59;50.31
31044;BME280;17710;52.520;13.352;2022-09-01T04:13:56;101942.63;;;19.26;51.02
31044;BME280;17710;52.520;13.352;2022-09-01T04:16:26;101948.13;;;19.40;50.87
31044;BME280;17710;52.520;13.352;2022-09-01T04:19:15;101948.81;;;19.44;50.72
31044;BME280;17710;52.520;13.352;2022-09-01T04:21:45;101949.88;;;19.41;50.69
31044;BME280;17710;52.520;13.352;2022-09-01T04:24:12;101949.91;;;19.57;50.15
31044;BME280;17710;52.520;13.352;2022-09-01T04:26:39;101944.66;;;19.56;50.14
31044;BME280;17710;52.520;13.352;2022-09-01T04:29:06;101946.63;;;19.52;50.21
31044;BME280;17710;52.520;13.352;2022-09-01T04:31:37;101952.38;;;19.62;50.15
31044;BME280;17710;52.520;13.352;2022-09-01T04:34:06;101950.81;;;19.40;50.62
31044;BME280;17710;52.520;13.352;2022-09-01T04:36:37;101953.50;;;19.40;50.58
31044;BME280;17710;52.520;13.352;2022-09-01T04:39:06;101954.75;;;19.50;50.34
31044;BME280;17710;52.520;13.352;2022-09-01T04:41:38;101957.81;;;19.43;50.76
31044;BME280;17710;52.520;13.352;2022-09-01T04:44:06;101960.91;;;19.53;50.70
31044;BME280;17710;52.520;13.352;2022-09-01T04:46:34;101960.75;;;19.56;50.22
31044;BME280;17710;52.520;13.352;2022-09-01T04:49:03;101956.34;;;19.55;50.13
31044;BME280;17710;52.520;13.352;2022-09-01T04:51:36;101958.22;;;19.53;49.99
31044;BME280;17710;52.520;13.352;2022-09-01T04:54:03;101960.31;;;19.63;49.97
31044;BME280;17710;52.520;13.352;2022-09-01T04:56:36;101961.38;;;19.61;49.96
31044;BME280;17710;52.520;13.352;2022-09-01T04:59:03;101956.16;;;19.58;49.87
31044;BME280;17710;52.520;13.352;2022-09-01T05:01:33;101960.38;;;19.46;50.15
31044;BME280;17710;52.520;13.352;2022-09-01T05:04:12;101964.16;;;19.75;49.55
31044;BME280;17710;52.520;13.352;2022-09-01T05:06:42;101963.72;;;19.67;49.45
31044;BME280;17710;52.520;13.352;2022-09-01T05:09:10;101961.50;;;19.75;49.54
31044;BME280;17710;52.520;13.352;2022-09-01T05:11:37;101963.84;;;19.81;49.07
31044;BME280;17710;52.520;13.352;2022-09-01T05:14:06;101959.69;;;19.58;49.73
31044;BME280;17710;52.520;13.352;2022-09-01T05:16:33;101956.81;;;19.78;49.43
31044;BME280;17710;52.520;13.352;2022-09-01T05:19:00;101962.00;;;19.81;49.75
31044;BME280;17710;52.520;13.352;2022-09-01T05:21:28;101959.75;;;19.89;49.23
31044;BME280;17710;52.520;13.352;2022-09-01T05:23:56;101955.56;;;20.01;48.69
31044;BME280;17710;52.520;13.352;2022-09-01T05:26:26;101955.34;;;20.04;48.83
31044;BME280;17710;52.520;13.352;2022-09-01T05:28:55;101960.22;;;19.82;49.00
31044;BME280;17710;52.520;13.352;2022-09-01T05:31:23;101951.72;;;20.05;48.87
31044;BME280;17710;52.520;13.352;2022-09-01T05:33:52;101962.03;;;20.13;48.39
31044;BME280;17710;52.520;13.352;2022-09-01T05:36:20;101957.13;;;20.37;48.17
31044;BME280;17710;52.520;13.352;2022-09-01T05:38:49;101961.97;;;20.14;48.22
31044;BME280;17710;52.520;13.352;2022-09-01T05:41:19;101962.81;;;20.30;48.00
31044;BME280;17710;52.520;13.352;2022-09-01T05:43:49;101962.66;;;20.49;47.55
31044;BME280;17710;52.520;13.352;2022-09-01T05:46:20;101965.78;;;20.42;47.60
31044;BME280;17710;52.520;13.352;2022-09-01T05:48:49;101961.84;;;20.63;47.13
31044;BME280;17710;52.520;13.352;2022-09-01T05:51:18;101958.34;;;20.77;46.90
31044;BME280;17710;52.520;13.352;2022-09-01T05:53:50;101966.88;;;20.69;47.11
31044;BME280;17710;52.520;13.352;2022-09-01T05:56:18;101965.38;;;20.79;47.01
31044;BME280;17710;52.520;13.352;2022-09-01T05:58:45;101968.22;;;20.92;46.67
31044;BME280;17710;52.520;13.352;2022-09-01T06:01:15;101964.09;;;21.00;46.17
31044;BME280;17710;52.520;13.352;2022-09-01T06:03:49;101965.44;;;21.07;46.26
31044;BME280;17710;52.520;13.352;2022-09-01T06:06:19;101971.97;;;21.19;46.18
31044;BME280;17710;52.520;13.352;2022-09-01T06:08:48;101966.75;;;21.16;46.14
31044;BME280;17710;52.520;13.352;2022-09-01T06:11:15;101962.66;;;21.25;45.82
31044;BME280;17710;52.520;13.352;2022-09-01T06:13:42;101964.31;;;21.12;45.77
31044;BME280;17710;52.520;13.352;2022-09-01T06:16:11;101973.22;;;21.28;45.34
31044;BME280;17710;52.520;13.352;2022-09-01T06:18:38;101975.25;;;21.38;45.50
31044;BME280;17710;52.520;13.352;2022-09-01T06:21:08;101969.22;;;21.49;45.17
31044;BME280;17710;52.520;13.352;2022-09-01T06:23:39;101972.28;;;21.57;44.74
31044;BME280;17710;52.520;13.352;2022-09-01T06:26:07;101967.00;;;21.70;44.56
31044;BME280;17710;52.520;13.352;2022-09-01T06:28:34;101968.66;;;21.58;44.80
31044;BME280;17710;52.520;13.352;2022-09-01T06:31:08;101972.09;;;21.46;44.83
31044;BME280;17710;52.520;13.352;2022-09-01T06:33:36;101977.19;;;21.65;44.37
31044;BME280;17710;52.520;13.352;2022-09-01T06:36:04;101975.56;;;21.76;44.24
31044;BME280;17710;52.520;13.352;2022-09-01T06:38:35;101979.50;;;21.99;43.87
31044;BME280;17710;52.520;13.352;2022-09-01T06:41:04;101983.41;;;22.22;43.31
31044;BME280;17710;52.520;13.352;2022-09-01T06:43:39;101979.22;;;22.18;43.11
31044;BME280;17710;52.520;13.352;2022-09-01T06:46:07;101981.03;;;21.89;43.51
31044;BME280;17710;52.520;13.352;2022-09-01T06:48:34;101982.31;;;22.39;43.03
31044;BME280;17710;52.520;13.352;2022-09-01T06:51:05;101982.94;;;22.56;42.71
31044;BME280;17710;52.520;13.352;2022-09-01T06:53:33;101984.53;;;22.32;42.79
31044;BME280;17710;52.520;13.352;2022-09-01T06:56:00;101983.03;;;22.28;42.77
31044;BME280;17710;52.520;13.352;2022-09-01T06:58:28;101987.91;;;22.36;42.62
31044;BME280;17710;52.520;13.352;2022-09-01T07:01:04;101979.06;;;22.60;42.25
31044;BME280;17710;52.520;13.352;2022-09-01T07:03:31;101978.47;;;22.43;42.76
31044;BME280;17710;52.520;13.352;2022-09-01T07:06:04;101983.47;;;22.76;42.02
31044;BME280;17710;52.520;13.352;2022-09-01T07:08:31;101982.03;;;22.97;41.37
31044;BME280;17710;52.520;13.352;2022-09-01T07:11:04;101985.75;;;23.21;40.68
31044;BME280;17710;52.520;13.352;2022-09-01T07:13:33;101983.16;;;23.20;40.73
31044;BME280;17710;52.520;13.352;2022-09-01T07:16:02;101986.38;;;23.37;40.61
31044;BME280;17710;52.520;13.352;2022-09-01T07:18:31;101988.44;;;23.34;40.17
31044;BME280;17710;52.520;13.352;2022-09-01T07:20:58;101991.72;;;23.52;39.91
31044;BME280;17710;52.520;13.352;2022-09-01T07:23:31;101990.72;;;23.27;40.14
31044;BME280;17710;52.520;13.352;2022-09-01T07:25:57;101996.59;;;23.72;39.76
31044;BME280;17710;52.520;13.352;2022-09-01T07:28:25;101988.72;;;24.18;39.16
31044;BME280;17710;52.520;13.352;2022-09-01T07:30:54;101988.28;;;24.84;37.61
31044;BME280;17710;52.520;13.352;2022-09-01T07:33:22;101990.25;;;24.35;38.12
31044;BME280;17710;52.520;13.352;2022-09-01T07:35:49;101990.25;;;24.35;37.58
31044;BME280;17710;52.520;13.352;2022-09-01T07:38:17;101987.97;;;24.16;38.13
31044;BME280;17710;52.520;13.352;2022-09-01T07:40:47;101996.53;;;24.22;38.13
31044;BME280;17710;52.520;13.352;2022-09-01T07:43:19;101994.84;;;24.45;37.65
31044;BME280;17710;52.520;13.352;2022-09-01T07:45:51;102000.66;;;24.52;37.69
31044;BME280;17710;52.520;13.352;2022-09-01T07:48:23;101992.72;;;24.61;37.70
31044;BME280;17710;52.520;13.352;2022-09-01T07:50:53;101990.34;;;24.57;37.63
31044;BME280;17710;52.520;13.352;2022-09-01T07:53:23;101988.78;;;23.93;38.56
31044;BME280;17710;52.520;13.352;2022-09-01T07:55:51;101989.78;;;24.41;38.08
31044;BME280;17710;52.520;13.352;2022-09-01T07:58:20;101995.00;;;24.55;37.66
31044;BME280;17710;52.520;13.352;2022-09-01T08:00:51;101988.31;;;24.24;38.14
31044;BME280;17710;52.520;13.352;2022-09-01T08:03:20;101999.94;;;24.37;37.46
31044;BME280;17710;52.520;13.352;2022-09-01T08:05:54;102001.22;;;25.16;36.20
31044;BME280;17710;52.520;13.352;2022-09-01T08:08:28;102003.13;;;25.37;35.76
31044;BME280;17710;52.520;13.352;2022-09-01T08:10:54;101995.03;;;25.49;34.78
31044;BME280;17710;52.520;13.352;2022-09-01T08:13:20;102001.88;;;25.41;34.93
31044;BME280;17710;52.520;13.352;2022-09-01T08:15:50;102007.38;;;25.18;34.18
31044;BME280;17710;52.520;13.352;2022-09-01T08:18:16;102007.25;;;25.19;34.72
31044;BME280;17710;52.520;13.352;2022-09-01T08:20:44;102005.25;;;24.86;35.28
31044;BME280;17710;52.520;13.352;2022-09-01T08:23:14;102000.06;;;24.83;35.76
31044;BME280;17710;52.520;13.352;2022-09-01T08:25:44;102002.75;;;24.96;35.32
31044;BME280;17710;52.520;13.352;2022-09-01T08:28:11;101994.44;;;25.10;34.94
31044;BME280;17710;52.520;13.352;2022-09-01T08:30:40;102000.88;;;25.20;34.75
31044;BME280;17710;52.520;13.352;2022-09-01T08:33:07;101996.56;;;25.18;34.90
31044;BME280;17710;52.520;13.352;2022-09-01T08:35:38;102005.13;;;25.00;34.46
31044;BME280;17710;52.520;13.352;2022-09-01T08:38:04;101995.28;;;24.99;34.47
31044;BME280;17710;52.520;13.352;2022-09-01T08:40:37;101994.22;;;25.13;34.62
31044;BME280;17710;52.520;13.352;2022-09-01T08:43:13;101996.09;;;25.35;34.27
31044;BME280;17710;52.520;13.352;2022-09-01T08:45:45;101997.72;;;25.37;34.29
31044;BME280;17710;52.520;13.352;2022-09-01T08:48:15;101997.41;;;25.18;34.12
31044;BME280;17710;52.520;13.352;2022-09-01T08:50:47;101980.88;;;25.45;33.40
31044;BME280;17710;52.520;13.352;2022-09-01T08:53:21;101990.34;;;25.39;33.94
31044;BME280;17710;52.520;13.352;2022-09-01T08:55:55;101993.16;;;25.38;33.54
31044;BME280;17710;52.520;13.352;2022-09-01T08:58:26;101990.44;;;25.27;32.52
31044;BME280;17710;52.520;13.352;2022-09-01T09:00:57;101994.81;;;25.17;33.27
31044;BME280;17710;52.520;13.352;2022-09-01T09:03:36;101991.38;;;25.15;32.82
31044;BME280;17710;52.520;13.352;2022-09-01T09:06:13;101998.31;;;25.41;32.98
31044;BME280;17710;52.520;13.352;2022-09-01T09:08:50;101988.06;;;25.57;33.28
31044;BME280;17710;52.520;13.352;2022-09-01T09:11:57;101986.97;;;25.71;32.07
31044;BME280;17710;52.520;13.352;2022-09-01T09:14:47;101988.50;;;25.51;31.85
31044;BME280;17710;52.520;13.352;2022-09-01T09:17:22;101981.44;;;25.84;32.41
31044;BME280;17710;52.520;13.352;2022-09-01T09:19:51;101994.06;;;25.61;32.63
31044;BME280;17710;52.520;13.352;2022-09-01T09:22:18;101985.84;;;25.62;32.28
31044;BME280;17710;52.520;13.352;2022-09-01T09:24:48;101986.22;;;25.69;32.11
31044;BME280;17710;52.520;13.352;2022-09-01T09:27:19;101987.34;;;25.77;32.74
31044;BME280;17710;52.520;13.352;2022-09-01T09:29:51;101989.56;;;25.84;32.51
31044;BME280;17710;52.520;13.352;2022-09-01T09:32:20;101974.28;;;25.94;31.88
31044;BME280;17710;52.520;13.352;2022-09-01T09:34:51;101976.25;;;25.80;31.26
31044;BME280;17710;52.520;13.352;2022-09-01T09:37:23;101970.50;;;25.85;31.85
31044;BME280;17710;52.520;13.352;2022-09-01T09:40:10;101975.97;;;26.06;31.77
31044;BME280;17710;52.520;13.352;2022-09-01T09:43:02;101972.03;;;26.21;31.19
31044;BME280;17710;52.520;13.352;2022-09-01T09:45:31;101967.88;;;26.28;31.04
31044;BME280;17710;52.520;13.352;2022-09-01T09:47:59;101975.00;;;26.72;30.21
31044;BME280;17710;52.520;13.352;2022-09-01T09:50:34;101970.31;;;26.42;29.80
31044;BME280;17710;52.520;13.352;2022-09-01T09:53:26;101968.41;;;26.86;29.45
31044;BME280;17710;52.520;13.352;2022-09-01T09:55:58;101968.22;;;26.78;30.06
31044;BME280;17710;52.520;13.352;2022-09-01T09:58:34;101968.81;;;26.49;30.07
31044;BME280;17710;52.520;13.352;2022-09-01T10:01:07;101975.16;;;26.71;30.02
31044;BME280;17710;52.520;13.352;2022-09-01T10:03:44;101973.25;;;26.50;30.06
31044;BME280;17710;52.520;13.352;2022-09-01T10:06:29;101963.63;;;26.46;30.23
31044;BME280;17710;52.520;13.352;2022-09-01T10:08:58;101970.25;;;26.85;29.59
31044;BME280;17710;52.520;13.352;2022-09-01T10:11:34;101970.31;;;27.06;27.81
31044;BME280;17710;52.520;13.352;2022-09-01T10:14:09;101971.13;;;26.97;27.22
31044;BME280;17710;52.520;13.352;2022-09-01T10:16:37;101959.00;;;26.69;28.37
31044;BME280;17710;52.520;13.352;2022-09-01T10:19:10;101964.50;;;26.79;28.59
31044;BME280;17710;52.520;13.352;2022-09-01T10:21:41;101963.91;;;26.75;28.65
31044;BME280;17710;52.520;13.352;2022-09-01T10:24:16;101964.75;;;27.08;28.04
31044;BME280;17710;52.520;13.352;2022-09-01T10:26:48;101969.28;;;26.98;27.78
31044;BME280;17710;52.520;13.352;2022-09-01T10:29:23;101963.22;;;26.94;28.43
31044;BME280;17710;52.520;13.352;2022-09-01T10:31:53;101961.78;;;26.79;27.42
31044;BME280;17710;52.520;13.352;2022-09-01T10:34:22;101954.56;;;27.00;27.56
31044;BME280;17710;52.520;13.352;2022-09-01T10:36:51;101955.84;;;26.96;27.03
31044;BME280;17710;52.520;13.352;2022-09-01T10:39:20;101945.22;;;26.93;27.21
31044;BME280;17710;52.520;13.352;2022-09-01T10:41:49;101957.41;;;26.67;28.47
31044;BME280;17710;52.520;13.352;2022-09-01T10:44:21;101951.81;;;26.90;28.56
31044;BME280;17710;52.520;13.352;2022-09-01T10:46:51;101952.16;;;26.54;28.72
31044;BME280;17710;52.520;13.352;2022-09-01T10:52:57;101952.66;;;26.91;27.61
31044;BME280;17710;52.520;13.352;2022-09-01T10:55:45;101956.03;;;27.04;27.58
31044;BME280;17710;52.520;13.352;2022-09-01T10:58:33;101946.09;;;27.14;27.52
31044;BME280;17710;52.520;13.352;2022-09-01T11:01:04;101947.22;;;27.12;27.90
31044;BME280;17710;52.520;13.352;2022-09-01T11:06:53;101945.69;;;27.19;27.60
31044;BME280;17710;52.520;13.352;2022-09-01T11:09:28;101945.34;;;26.91;27.45
31044;BME280;17710;52.520;13.352;2022-09-01T11:12:17;101948.09;;;26.80;27.82
31044;BME280;17710;52.520;13.352;2022-09-01T11:14:48;101949.38;;;26.65;27.89
31044;BME280;17710;52.520;13.352;2022-09-01T11:17:22;101945.44;;;26.37;28.14
31044;BME280;17710;52.520;13.352;2022-09-01T11:19:56;101938.53;;;26.33;28.24
31044;BME280;17710;52.520;13.352;2022-09-01T11:22:35;101944.00;;;26.11;28.16
31044;BME280;17710;52.520;13.352;2022-09-01T11:25:40;101933.00;;;26.35;27.50
31044;BME280;17710;52.520;13.352;2022-09-01T11:31:19;101940.19;;;26.56;27.63
31044;BME280;17710;52.520;13.352;2022-09-01T11:34:00;101941.47;;;26.41;27.30
31044;BME280;17710;52.520;13.352;2022-09-01T11:36:30;101950.75;;;26.71;27.41
31044;BME280;17710;52.520;13.352;2022-09-01T11:39:05;101941.59;;;26.51;27.10
31044;BME280;17710;52.520;13.352;2022-09-01T11:41:49;101944.06;;;26.43;27.15
31044;BME280;17710;52.520;13.352;2022-09-01T11:44:21;101941.19;;;26.55;26.54
31044;BME280;17710;52.520;13.352;2022-09-01T11:46:49;101938.03;;;27.03;26.29
31044;BME280;17710;52.520;13.352;2022-09-01T11:49:26;101936.13;;;27.15;25.90
31044;BME280;17710;52.520;13.352;2022-09-01T11:51:54;101935.34;;;27.24;25.96
31044;BME280;17710;52.520;13.352;2022-09-01T11:54:24;101928.31;;;27.72;25.27
31044;BME280;17710;52.520;13.352;2022-09-01T11:56:53;101934.25;;;27.36;24.86
31044;BME280;17710;52.520;13.352;2022-09-01T11:59:30;101928.44;;;27.20;25.25
31044;BME280;17710;52.520;13.352;2022-09-01T12:01:57;101935.78;;;27.29;25.11
31044;BME280;17710;52.520;13.352;2022-09-01T12:04:31;101929.75;;;27.25;25.08
31044;BME280;17710;52.520;13.352;2022-09-01T12:07:01;101933.19;;;27.27;25.50
31044;BME280;17710;52.520;13.352;2022-09-01T12:09:47;101930.94;;;27.12;25.39
31044;BME280;17710;52.520;13.352;2022-09-01T12:12:28;101929.25;;;26.90;26.07
31044;BME280;17710;52.520;13.352;2022-09-01T12:14:56;101928.97;;;26.93;26.06
31044;BME280;17710;52.520;13.352;2022-09-01T12:17:25;101926.13;;;26.63;26.97
31044;BME280;17710;52.520;13.352;2022-09-01T12:19:52;101932.00;;;26.68;27.69
31044;BME280;17710;52.520;13.352;2022-09-01T12:22:25;101932.66;;;26.92;27.80
31044;BME280;17710;52.520;13.352;2022-09-01T12:24:56;101932.00;;;26.68;27.73
31044;BME280;17710;52.520;13.352;2022-09-01T12:27:23;101927.13;;;26.62;27.77
31044;BME280;17710;52.520;13.352;2022-09-01T12:29:53;101929.59;;;26.65;27.83
31044;BME280;17710;52.520;13.352;2022-09-01T12:32:21;101942.34;;;26.74;27.81
31044;BME280;17710;52.520;13.352;2022-09-01T12:35:00;101922.19;;;26.87;27.79
31044;BME280;17710;52.520;13.352;2022-09-01T12:37:27;101933.00;;;26.98;27.65
31044;BME280;17710;52.520;13.352;2022-09-01T12:39:57;101930.72;;;26.83;27.52
31044;BME280;17710;52.520;13.352;2022-09-01T12:42:27;101924.41;;;26.62;27.95
31044;BME280;17710;52.520;13.352;2022-09-01T12:44:57;101921.28;;;26.34;28.34
31044;BME280;17710;52.520;13.352;2022-09-01T12:47:44;101930.88;;;26.49;28.64
31044;BME280;17710;52.520;13.352;2022-09-01T12:50:31;101923.66;;;26.59;28.40
31044;BME280;17710;52.520;13.352;2022-09-01T12:52:59;101919.72;;;26.32;27.98
31044;BME280;17710;52.520;13.352;2022-09-01T12:55:30;101925.84;;;26.45;27.88
31044;BME280;17710;52.520;13.352;2022-09-01T12:57:59;101918.97;;;26.30;28.19
31044;BME280;17710;52.520;13.352;2022-09-01T13:00:28;101908.56;;;26.78;28.13
31044;BME280;17710;52.520;13.352;2022-09-01T13:03:06;101910.63;;;27.06;27.29
31044;BME280;17710;52.520;13.352;2022-09-01T13:05:42;101913.84;;;27.72;26.91
31044;BME280;17710;52.520;13.352;2022-09-01T13:08:10;101917.63;;;27.90;26.25